createdAt,value
2022-09-23T00:02:27.525Z,99658.34
2022-09-23T00:04:59.011Z,99630.00
2022-09-23T00:07:28.100Z,99614.53
2022-09-23T00:09:57.050Z,99632.56
2022-09-23T00:12:26.360Z,99623.97
2022-09-23T00:14:54.296Z,99637.69
2022-09-23T00:17:26.251Z,99625.69
2022-09-23T00:19:55.574Z,99609.38
2022-09-23T00:22:23.135Z,99630.84
2022-09-23T00:24:50.281Z,99633.38
2022-09-23T00:27:34.256Z,99652.25
2022-09-23T00:30:07.157Z,99613.63
2022-09-23T00:32:36.636Z,99617.94
2022-09-23T00:35:36.503Z,99604.19
2022-09-23T00:38:28.394Z,99614.44
2022-09-23T00:41:06.820Z,99647.03
2022-09-23T00:43:40.766Z,99633.31
2022-09-23T00:46:13.995Z,99598.13
2022-09-23T00:48:42.790Z,99618.69
2022-09-23T00:51:18.957Z,99598.94
2022-09-23T00:53:51.560Z,99638.47
2022-09-23T00:56:24.974Z,99616.13
2022-09-23T00:59:04.586Z,99616.09
2022-09-23T01:01:37.670Z,99608.38
2022-09-23T01:04:13.523Z,99608.34
2022-09-23T01:06:53.424Z,99642.66
2022-09-23T01:09:26.874Z,99629.81
2022-09-23T01:12:27.877Z,99634.91
2022-09-23T01:14:57.529Z,99628.94
2022-09-23T01:17:40.157Z,99618.63
2022-09-23T01:20:25.897Z,99625.47
2022-09-23T01:23:17.752Z,99628.03
2022-09-23T01:26:09.962Z,99589.44
2022-09-23T01:29:05.060Z,99623.72
2022-09-23T01:32:10.348Z,99576.50
2022-09-23T01:35:20.272Z,99603.03
2022-09-23T01:38:07.459Z,99610.75
2022-09-23T01:40:43.553Z,99607.31
2022-09-23T01:43:32.634Z,99576.44
2022-09-23T01:46:07.383Z,99596.22
2022-09-23T01:48:41.065Z,99588.47
2022-09-23T01:51:35.727Z,99593.59
2022-09-23T01:54:38.943Z,99618.47
2022-09-23T01:57:46.848Z,99610.75
2022-09-23T02:03:14.694Z,99618.47
2022-09-23T02:09:33.330Z,99608.13
2022-09-23T02:12:06.013Z,99574.72
2022-09-23T02:14:48.165Z,99606.44
2022-09-23T02:17:18.805Z,99588.38
2022-09-23T02:19:48.733Z,99571.25
2022-09-23T02:22:18.931Z,99580.66
2022-09-23T02:24:46.108Z,99611.59
2022-09-23T02:27:36.870Z,99579.81
2022-09-23T02:30:11.736Z,99610.72
2022-09-23T02:32:51.546Z,99574.66
2022-09-23T02:35:34.154Z,99606.44
2022-09-23T02:38:09.910Z,99613.25
2022-09-23T02:40:41.279Z,99582.34
2022-09-23T02:43:13.040Z,99578.91
2022-09-23T02:45:41.715Z,99582.28
2022-09-23T02:48:14.939Z,99581.47
2022-09-23T02:50:42.221Z,99581.44
2022-09-23T02:53:09.603Z,99584.00
2022-09-23T02:55:36.781Z,99579.69
2022-09-23T02:58:04.084Z,99592.59
2022-09-23T03:00:50.302Z,99626.03
2022-09-23T03:03:30.192Z,99623.47
2022-09-23T03:05:58.461Z,99592.59
2022-09-23T03:08:30.630Z,99623.47
2022-09-23T03:11:04.485Z,99612.34
2022-09-23T03:13:38.771Z,99614.91
2022-09-23T03:16:15.006Z,99614.03
2022-09-23T03:18:43.693Z,99614.03
2022-09-23T03:21:49.574Z,99582.22
2022-09-23T03:24:16.998Z,99588.22
2022-09-23T03:26:45.754Z,99596.81
2022-09-23T03:29:12.842Z,99590.84
2022-09-23T03:31:40.399Z,99590.84
2022-09-23T03:34:29.769Z,99589.94
2022-09-23T03:37:21.123Z,99601.97
2022-09-23T03:39:59.916Z,99615.59
2022-09-23T03:42:30.243Z,99564.13
2022-09-23T03:44:57.636Z,99595.88
2022-09-23T03:47:28.033Z,99576.09
2022-09-23T03:49:57.130Z,99558.94
2022-09-23T03:52:24.842Z,99562.34
2022-09-23T03:54:53.786Z,99591.53
2022-09-23T03:57:23.898Z,99594.16
2022-09-23T03:59:53.401Z,99605.28
2022-09-23T04:02:20.971Z,99575.22
2022-09-23T04:04:48.467Z,99550.34
2022-09-23T04:07:15.897Z,99593.22
2022-09-23T04:09:42.913Z,99588.16
2022-09-23T04:12:13.375Z,99588.94
2022-09-23T04:14:40.596Z,99598.41
2022-09-23T04:17:07.728Z,99594.09
2022-09-23T04:29:06.569Z,99597.31
2022-09-23T04:31:34.206Z,99605.91
2022-09-23T04:34:07.050Z,99605.88
2022-09-23T04:36:37.992Z,99609.31
2022-09-23T04:39:05.068Z,99600.69
2022-09-23T04:41:32.221Z,99563.81
2022-09-23T04:43:59.336Z,99575.78
2022-09-23T04:46:26.522Z,99572.41
2022-09-23T04:48:53.688Z,99574.06
2022-09-23T04:51:21.890Z,99580.06
2022-09-23T04:53:49.749Z,99574.06
2022-09-23T04:56:19.054Z,99574.03
2022-09-23T04:58:47.076Z,99563.72
2022-09-23T05:01:17.260Z,99575.75
2022-09-23T05:03:45.638Z,99574.00
2022-09-23T05:06:16.847Z,99570.53
2022-09-23T05:08:50.450Z,99578.22
2022-09-23T05:11:19.025Z,99579.94
2022-09-23T05:13:50.678Z,99588.44
2022-09-23T05:16:18.173Z,99596.13
2022-09-23T05:18:45.757Z,99597.00
2022-09-23T05:21:17.258Z,99627.09
2022-09-23T05:23:48.059Z,99625.34
2022-09-23T05:26:16.629Z,99633.03
2022-09-23T05:28:46.177Z,99607.25
2022-09-23T05:31:21.048Z,99600.41
2022-09-23T05:33:54.092Z,99602.97
2022-09-23T05:36:24.428Z,99639.84
2022-09-23T05:38:51.821Z,99617.50
2022-09-23T05:41:29.949Z,99639.00
2022-09-23T05:44:11.287Z,99600.38
2022-09-23T05:46:56.953Z,99619.31
2022-09-23T05:58:29.906Z,99622.63
2022-09-23T06:00:59.669Z,99616.72
2022-09-23T06:03:26.927Z,99614.16
2022-09-23T06:05:56.446Z,99643.47
2022-09-23T06:08:27.564Z,99615.94
2022-09-23T06:10:54.986Z,99611.72
2022-09-23T06:13:22.131Z,99622.84
2022-09-23T06:15:49.347Z,99622.88
2022-09-23T06:18:19.457Z,99622.06
2022-09-23T06:20:49.555Z,99617.81
2022-09-23T06:23:16.678Z,99616.97
2022-09-23T06:25:43.940Z,99621.28
2022-09-23T06:28:12.652Z,99622.16
2022-09-23T06:30:42.847Z,99627.34
2022-09-23T06:33:10.337Z,99615.38
2022-09-23T06:35:37.474Z,99630.84
2022-09-23T06:38:05.124Z,99624.88
2022-09-23T06:40:32.808Z,99637.75
2022-09-23T06:43:00.710Z,99622.38
2022-09-23T06:45:30.893Z,99625.84
2022-09-23T06:47:59.921Z,99622.44
2022-09-23T06:50:27.661Z,99629.28
2022-09-23T06:53:01.170Z,99629.31
2022-09-23T06:55:28.287Z,99628.44
2022-09-23T06:57:57.947Z,99631.91
2022-09-23T07:00:28.965Z,99625.97
2022-09-23T07:02:58.349Z,99640.53
2022-09-23T07:05:25.475Z,99638.00
2022-09-23T07:10:36.567Z,99669.00
2022-09-23T07:13:06.436Z,99656.19
2022-09-23T07:15:36.637Z,99662.22
2022-09-23T07:18:06.392Z,99659.66
2022-09-23T07:20:44.332Z,99650.25
2022-09-23T07:23:13.755Z,99661.44
2022-09-23T07:25:43.854Z,99631.44
2022-09-23T07:28:12.569Z,99632.31
2022-09-23T07:30:51.308Z,99628.06
2022-09-23T07:33:31.637Z,99625.53
2022-09-23T07:40:40.039Z,99649.59
2022-09-23T07:43:10.033Z,99617.03
2022-09-23T07:45:39.059Z,99630.81
2022-09-23T07:48:06.286Z,99623.13
2022-09-23T07:50:33.780Z,99652.31
2022-09-23T07:53:03.262Z,99648.06
2022-09-23T07:55:30.478Z,99621.47
2022-09-23T07:58:01.587Z,99617.22
2022-09-23T08:00:33.945Z,99623.25
2022-09-23T08:03:01.044Z,99613.81
2022-09-23T08:05:31.303Z,99613.00
2022-09-23T08:08:01.343Z,99604.44
2022-09-23T08:43:35.449Z,99586.34
2022-09-23T08:46:10.300Z,99577.69
2022-09-23T08:48:44.778Z,99602.50
2022-09-23T08:51:14.745Z,99562.97
2022-09-23T08:53:43.843Z,99591.13
2022-09-23T08:59:20.463Z,99593.50
2022-09-23T09:01:53.295Z,99573.75
2022-09-23T09:04:38.149Z,99591.56
2022-09-23T09:10:40.609Z,99592.16
2022-09-23T09:13:22.794Z,99564.56
2022-09-23T09:16:59.502Z,99581.56
2022-09-23T09:19:52.425Z,99578.81
2022-09-23T09:22:37.918Z,99558.09
2022-09-23T09:25:42.681Z,99568.09
2022-09-23T09:28:24.862Z,99565.25
2022-09-23T09:30:57.735Z,99566.72
2022-09-23T09:33:39.615Z,99550.19
2022-09-23T09:36:09.256Z,99564.59
2022-09-23T09:38:36.907Z,99556.63
2022-09-23T09:41:17.214Z,99543.44
2022-09-23T09:43:45.717Z,99538.94
2022-09-23T09:46:37.071Z,99550.66
2022-09-23T09:49:29.144Z,99543.53
2022-09-23T09:52:20.779Z,99536.34
2022-09-23T09:54:49.772Z,99520.75
2022-09-23T09:57:35.173Z,99529.75
2022-09-23T10:00:25.957Z,99539.78
2022-09-23T10:03:02.834Z,99522.34
2022-09-23T10:06:01.547Z,99507.41
2022-09-23T10:09:04.061Z,99490.00
2022-09-23T10:12:17.125Z,99502.53
2022-09-23T10:21:40.043Z,99505.53
2022-09-23T10:24:08.935Z,99484.66
2022-09-23T10:29:50.743Z,99511.44
2022-09-23T10:33:21.169Z,99506.44
2022-09-23T10:37:13.118Z,99478.78
2022-09-23T10:39:53.034Z,99482.44
2022-09-23T10:42:58.786Z,99461.78
2022-09-23T10:53:29.822Z,99488.91
2022-09-23T10:56:10.739Z,99455.13
2022-09-23T10:58:55.660Z,99444.47
2022-09-23T11:51:14.701Z,99421.22
2022-09-23T13:24:26.783Z,99355.13
2022-09-23T13:30:11.078Z,99353.38
2022-09-23T13:33:14.565Z,99350.03
2022-09-23T13:42:30.289Z,99328.53
2022-09-23T13:45:01.927Z,99309.72
2022-09-23T13:47:34.193Z,99300.22
2022-09-23T13:53:03.058Z,99319.22
2022-09-23T13:55:31.540Z,99309.25
2022-09-23T14:08:14.476Z,99281.69
2022-09-23T14:10:50.212Z,99291.09
2022-09-23T14:13:39.102Z,99289.66
2022-09-23T14:16:09.065Z,99303.59
2022-09-23T14:19:17.390Z,99281.56
2022-09-23T14:25:04.044Z,99295.91
2022-09-23T14:35:17.474Z,99307.13
2022-09-23T14:38:29.968Z,99288.50
2022-09-23T14:41:24.479Z,99281.97
2022-09-23T14:44:14.438Z,99276.94
2022-09-23T15:24:42.064Z,99254.66
2022-09-23T15:27:12.256Z,99250.38
2022-09-23T15:29:50.298Z,99245.22
2022-09-23T15:32:18.542Z,99251.41
2022-09-23T15:35:27.442Z,99254.00
2022-09-23T15:37:59.009Z,99231.88
2022-09-23T16:05:19.286Z,99235.63
2022-09-23T16:18:36.150Z,99242.34
2022-09-23T16:21:06.611Z,99245.66
2022-09-23T16:23:34.920Z,99245.78
2022-09-23T16:26:03.858Z,99249.16
2022-09-23T16:28:30.901Z,99248.41
2022-09-23T16:30:59.446Z,99244.13
2022-09-23T16:33:30.709Z,99240.81
2022-09-23T16:36:02.508Z,99243.50
2022-09-23T16:41:59.242Z,99229.28
2022-09-23T16:52:15.058Z,99249.56
2022-09-23T16:54:43.902Z,99258.91
2022-09-23T16:57:15.765Z,99237.63
2022-09-23T17:00:34.140Z,99270.22
2022-09-23T17:03:45.069Z,99234.59
2022-09-23T17:09:26.845Z,99249.44
2022-09-23T17:12:16.457Z,99244.53
2022-09-23T17:15:39.377Z,99272.75
2022-09-23T17:18:19.512Z,99256.75
2022-09-23T17:27:31.720Z,99286.25
2022-09-23T17:29:59.110Z,99249.59
2022-09-23T17:32:26.729Z,99257.38
2022-09-23T17:34:54.384Z,99258.41
2022-09-23T17:37:21.556Z,99253.34
2022-09-23T17:39:48.621Z,99261.13
2022-09-23T17:42:15.862Z,99259.56
2022-09-23T17:44:42.939Z,99289.56
2022-09-23T17:47:10.126Z,99269.25
2022-09-23T17:49:37.342Z,99302.63
2022-09-23T17:52:05.818Z,99270.25
2022-09-23T17:54:32.946Z,99279.00
2022-09-23T17:57:01.201Z,99282.47
2022-09-23T17:59:28.343Z,99284.44
2022-09-23T18:01:55.535Z,99275.94
2022-09-23T18:04:28.650Z,99285.47
2022-09-23T18:06:55.747Z,99299.31
2022-09-23T18:17:06.717Z,99304.16
2022-09-23T18:26:32.641Z,99311.22
2022-09-23T18:33:37.500Z,99320.00
2022-09-23T18:36:07.901Z,99292.84
2022-09-23T18:38:36.821Z,99285.09
2022-09-23T18:41:04.221Z,99287.75
2022-09-23T18:43:41.374Z,99295.53
2022-09-23T18:46:15.007Z,99292.16
2022-09-23T18:49:01.156Z,99282.00
2022-09-23T18:54:14.561Z,99266.63
2022-09-23T19:22:55.254Z,99284.84
2022-09-23T19:25:23.573Z,99288.22
2022-09-23T19:27:50.649Z,99289.97
2022-09-23T19:30:29.263Z,99290.88
2022-09-23T19:54:06.148Z,99316.19
2022-09-23T19:59:52.377Z,99282.97
2022-09-23T20:02:38.315Z,99290.72
2022-09-23T20:05:20.426Z,99284.78
2022-09-23T20:08:00.488Z,99289.09
2022-09-23T20:10:30.029Z,99298.47
2022-09-23T20:13:02.703Z,99306.19
2022-09-23T20:15:31.188Z,99291.66
2022-09-23T20:25:23.504Z,99291.13
2022-09-23T20:37:41.488Z,99306.63
2022-09-23T20:52:37.902Z,99305.16
2022-09-23T21:01:58.385Z,99272.72
2022-09-23T21:04:27.288Z,99267.56
2022-09-23T21:06:56.093Z,99277.88
2022-09-23T21:12:51.870Z,99288.25
2022-09-23T21:44:51.455Z,99292.00
2022-09-23T21:47:26.616Z,99305.69
2022-09-23T21:49:54.172Z,99288.63
2022-09-23T21:52:26.901Z,99320.25
2022-09-23T21:55:00.271Z,99315.97
